createdAt,value
2022-11-15T00:00:57.184Z,99.37
2022-11-15T00:03:27.604Z,99.92
2022-11-15T00:05:54.110Z,100.00
2022-11-15T00:08:20.770Z,99.87
2022-11-15T00:11:00.339Z,99.17
2022-11-15T00:13:27.848Z,99.50
2022-11-15T00:15:58.611Z,99.62
2022-11-15T00:18:25.361Z,99.37
2022-11-15T00:20:51.778Z,100.00
2022-11-15T00:23:22.538Z,100.00
2022-11-15T00:25:56.343Z,100.00
2022-11-15T00:28:22.770Z,100.00
2022-11-15T00:30:49.168Z,99.57
2022-11-15T00:33:15.640Z,99.62
2022-11-15T00:35:42.068Z,99.37
2022-11-15T00:38:08.545Z,99.06
2022-11-15T00:40:34.956Z,99.32
2022-11-15T00:43:01.385Z,99.70
2022-11-15T00:45:27.838Z,100.00
2022-11-15T00:47:54.255Z,100.00
2022-11-15T00:50:20.811Z,100.00
2022-11-15T00:52:47.246Z,100.00
2022-11-15T00:55:18.294Z,100.00
2022-11-15T00:57:45.069Z,100.00
2022-11-15T01:00:14.865Z,99.14
2022-11-15T01:02:41.301Z,98.17
2022-11-15T01:05:08.215Z,98.66
2022-11-15T01:07:34.787Z,98.82
2022-11-15T01:10:01.397Z,98.66
2022-11-15T01:12:28.057Z,98.89
2022-11-15T01:14:54.475Z,100.00
2022-11-15T01:17:21.183Z,100.00
2022-11-15T01:19:47.792Z,100.00
2022-11-15T01:22:14.314Z,100.00
2022-11-15T01:24:40.761Z,99.71
2022-11-15T01:27:07.355Z,99.25
2022-11-15T01:29:33.800Z,98.49
2022-11-15T01:32:02.242Z,98.80
2022-11-15T01:34:28.761Z,99.01
2022-11-15T01:36:55.160Z,99.58
2022-11-15T01:39:21.582Z,99.47
2022-11-15T01:41:48.048Z,99.17
2022-11-15T01:44:32.980Z,99.98
2022-11-15T01:47:02.061Z,100.00
2022-11-15T01:49:33.354Z,100.00
2022-11-15T01:52:02.583Z,100.00
2022-11-15T01:54:29.535Z,100.00
2022-11-15T01:57:07.678Z,99.83
2022-11-15T01:59:34.512Z,100.00
2022-11-15T02:02:01.393Z,100.00
2022-11-15T02:04:38.521Z,99.98
2022-11-15T02:07:07.763Z,99.56
2022-11-15T02:09:34.568Z,99.86
2022-11-15T02:12:01.265Z,99.32
2022-11-15T02:14:29.831Z,99.88
2022-11-15T02:17:30.000Z,99.59
2022-11-15T02:20:15.587Z,100.00
2022-11-15T02:23:28.075Z,99.50
2022-11-15T02:26:25.939Z,99.36
2022-11-15T02:28:58.384Z,99.61
2022-11-15T02:31:52.593Z,99.63
2022-11-15T02:34:39.239Z,99.90
2022-11-15T02:37:22.350Z,99.48
2022-11-15T02:39:57.891Z,99.37
2022-11-15T02:42:48.417Z,99.46
2022-11-15T02:45:22.444Z,99.08
2022-11-15T02:47:52.988Z,98.72
2022-11-15T02:50:23.004Z,99.67
2022-11-15T02:52:50.232Z,99.72
2022-11-15T02:55:27.706Z,99.55
2022-11-15T02:58:04.213Z,100.00
2022-11-15T03:00:37.440Z,100.00
2022-11-15T03:03:31.636Z,100.00
2022-11-15T03:06:05.200Z,99.95
2022-11-15T03:08:50.506Z,100.00
2022-11-15T03:11:20.535Z,99.93
2022-11-15T03:13:52.858Z,100.00
2022-11-15T03:16:40.370Z,99.33
2022-11-15T03:19:25.815Z,99.72
2022-11-15T03:21:54.709Z,100.00
2022-11-15T03:24:26.156Z,100.00
2022-11-15T03:26:55.896Z,100.00
2022-11-15T03:29:28.233Z,100.00
2022-11-15T03:32:12.248Z,100.00
2022-11-15T03:34:53.161Z,100.00
2022-11-15T03:37:23.152Z,100.00
2022-11-15T03:39:49.805Z,99.93
2022-11-15T03:42:16.147Z,100.00
2022-11-15T03:45:10.070Z,100.00
2022-11-15T03:48:00.663Z,100.00
2022-11-15T03:50:27.819Z,99.93
2022-11-15T03:52:55.487Z,99.81
2022-11-15T03:55:22.477Z,100.00
2022-11-15T03:57:51.412Z,100.00
2022-11-15T04:00:18.374Z,100.00
2022-11-15T04:02:44.798Z,100.00
2022-11-15T04:05:11.369Z,100.00
2022-11-15T04:07:37.973Z,100.00
2022-11-15T04:10:06.190Z,100.00
2022-11-15T04:12:34.799Z,100.00
2022-11-15T04:15:09.334Z,100.00
2022-11-15T04:17:37.697Z,100.00
2022-11-15T04:20:24.251Z,100.00
2022-11-15T04:23:12.654Z,100.00
2022-11-15T04:25:39.382Z,100.00
2022-11-15T04:28:05.887Z,100.00
2022-11-15T04:30:32.467Z,100.00
2022-11-15T04:32:59.041Z,100.00
2022-11-15T04:35:25.548Z,100.00
2022-11-15T04:37:51.938Z,100.00
2022-11-15T04:40:18.490Z,100.00
2022-11-15T04:42:44.920Z,99.89
2022-11-15T04:45:11.871Z,100.00
2022-11-15T04:47:38.415Z,99.86
2022-11-15T04:50:05.522Z,100.00
2022-11-15T04:52:31.925Z,100.00
2022-11-15T04:54:59.207Z,99.42
2022-11-15T04:57:27.879Z,99.51
2022-11-15T04:59:54.326Z,98.84
2022-11-15T05:02:20.790Z,99.78
2022-11-15T05:04:47.246Z,100.00
2022-11-15T05:07:13.748Z,100.00
2022-11-15T05:09:40.238Z,100.00
2022-11-15T05:12:06.728Z,100.00
2022-11-15T05:14:33.132Z,100.00
2022-11-15T05:16:59.535Z,100.00
2022-11-15T05:19:25.986Z,100.00
2022-11-15T05:21:52.417Z,100.00
2022-11-15T05:24:18.815Z,100.00
2022-11-15T05:26:45.234Z,100.00
2022-11-15T05:29:12.236Z,100.00
2022-11-15T05:31:42.248Z,100.00
2022-11-15T05:34:08.704Z,100.00
2022-11-15T05:36:42.889Z,100.00
2022-11-15T05:39:10.126Z,100.00
2022-11-15T05:41:47.916Z,100.00
2022-11-15T05:44:24.312Z,100.00
2022-11-15T05:46:54.479Z,100.00
2022-11-15T05:49:42.962Z,100.00
2022-11-15T05:52:12.494Z,100.00
2022-11-15T05:54:39.598Z,100.00
2022-11-15T05:57:06.673Z,100.00
2022-11-15T05:59:34.554Z,100.00
2022-11-15T06:02:01.234Z,100.00
2022-11-15T06:04:27.965Z,100.00
2022-11-15T06:06:54.614Z,100.00
2022-11-15T06:09:21.073Z,100.00
2022-11-15T06:11:47.527Z,100.00
2022-11-15T06:14:13.988Z,100.00
2022-11-15T06:16:44.958Z,100.00
2022-11-15T06:19:11.527Z,100.00
2022-11-15T06:21:37.936Z,100.00
2022-11-15T06:24:05.539Z,100.00
2022-11-15T06:26:32.089Z,100.00
2022-11-15T06:29:04.816Z,100.00
2022-11-15T06:31:31.611Z,100.00
2022-11-15T06:33:58.244Z,100.00
2022-11-15T06:36:24.655Z,100.00
2022-11-15T06:38:51.089Z,100.00
2022-11-15T06:41:35.999Z,100.00
2022-11-15T06:44:03.484Z,100.00
2022-11-15T06:46:29.952Z,100.00
2022-11-15T06:48:56.381Z,100.00
2022-11-15T06:51:22.852Z,100.00
2022-11-15T06:53:49.340Z,100.00
2022-11-15T06:56:15.794Z,100.00
2022-11-15T06:58:42.289Z,100.00
2022-11-15T07:01:11.128Z,100.00
2022-11-15T07:03:39.446Z,100.00
2022-11-15T07:06:08.048Z,100.00
2022-11-15T07:08:35.584Z,100.00
2022-11-15T07:11:04.980Z,100.00
2022-11-15T07:13:34.675Z,100.00
2022-11-15T07:16:09.668Z,100.00
2022-11-15T07:18:37.983Z,100.00
2022-11-15T07:21:13.557Z,100.00
2022-11-15T07:23:41.010Z,100.00
2022-11-15T07:26:08.670Z,100.00
2022-11-15T07:28:36.006Z,100.00
2022-11-15T07:31:04.731Z,100.00
2022-11-15T07:33:31.753Z,100.00
2022-11-15T07:36:03.771Z,100.00
2022-11-15T07:38:30.496Z,100.00
2022-11-15T07:41:01.909Z,100.00
2022-11-15T07:43:29.572Z,100.00
2022-11-15T07:45:59.429Z,100.00
2022-11-15T07:48:35.676Z,100.00
2022-11-15T07:51:12.781Z,100.00
2022-11-15T07:53:40.594Z,100.00
2022-11-15T07:56:08.510Z,100.00
2022-11-15T07:58:48.168Z,100.00
2022-11-15T08:01:14.675Z,100.00
2022-11-15T08:03:41.232Z,100.00
2022-11-15T08:06:07.888Z,100.00
2022-11-15T08:08:34.314Z,100.00
2022-11-15T08:11:01.551Z,100.00
2022-11-15T08:13:28.048Z,100.00
2022-11-15T08:16:00.211Z,100.00
2022-11-15T08:18:26.686Z,100.00
2022-11-15T08:20:53.087Z,100.00
2022-11-15T08:23:19.541Z,100.00
2022-11-15T08:25:45.959Z,100.00
2022-11-15T08:28:12.490Z,100.00
2022-11-15T08:30:42.892Z,100.00
2022-11-15T08:33:14.390Z,100.00
2022-11-15T08:35:44.355Z,100.00
2022-11-15T08:38:11.325Z,100.00
2022-11-15T08:40:38.222Z,100.00
2022-11-15T08:43:04.732Z,100.00
2022-11-15T08:45:32.456Z,100.00
2022-11-15T08:47:58.945Z,100.00
2022-11-15T08:50:25.358Z,100.00
2022-11-15T08:52:51.837Z,100.00
2022-11-15T08:55:18.320Z,100.00
2022-11-15T08:57:44.998Z,100.00
2022-11-15T09:00:13.115Z,100.00
2022-11-15T09:02:40.380Z,100.00
2022-11-15T09:05:07.842Z,100.00
2022-11-15T09:07:34.435Z,100.00
2022-11-15T09:10:00.933Z,100.00
2022-11-15T09:12:27.361Z,100.00
2022-11-15T09:14:53.842Z,100.00
2022-11-15T09:17:24.461Z,100.00
2022-11-15T09:19:51.489Z,99.97
2022-11-15T09:22:17.934Z,99.73
2022-11-15T09:24:44.400Z,98.73
2022-11-15T09:27:10.849Z,96.95
2022-11-15T09:29:37.340Z,96.25
2022-11-15T09:32:03.828Z,95.00
2022-11-15T09:34:30.293Z,94.70
2022-11-15T09:36:57.084Z,94.80
2022-11-15T09:39:23.504Z,95.02
2022-11-15T09:42:12.148Z,94.17
2022-11-15T09:45:16.195Z,92.99
2022-11-15T09:48:31.076Z,91.71
2022-11-15T09:51:00.560Z,89.38
2022-11-15T09:54:01.142Z,89.20
2022-11-15T09:56:26.803Z,88.85
2022-11-15T09:59:12.020Z,86.64
2022-11-15T10:02:08.917Z,83.78
2022-11-15T10:04:38.642Z,82.98
2022-11-15T10:07:28.152Z,80.26
2022-11-15T10:10:00.508Z,79.56
2022-11-15T10:12:28.610Z,79.06
2022-11-15T10:15:06.429Z,78.61
2022-11-15T10:17:46.272Z,78.85
2022-11-15T10:20:23.391Z,75.87
2022-11-15T10:23:13.546Z,77.63
2022-11-15T10:25:40.187Z,74.43
2022-11-15T10:28:25.091Z,71.78
2022-11-15T10:30:54.685Z,73.79
2022-11-15T10:33:30.263Z,76.72
2022-11-15T10:36:16.425Z,71.71
2022-11-15T10:38:49.021Z,69.08
2022-11-15T10:41:18.132Z,69.85
2022-11-15T10:43:45.824Z,69.49
2022-11-15T10:46:45.497Z,68.60
2022-11-15T10:49:29.537Z,69.50
2022-11-15T10:51:59.153Z,70.37
2022-11-15T10:54:41.924Z,69.93
2022-11-15T10:57:14.943Z,70.08
2022-11-15T10:59:49.145Z,69.94
2022-11-15T11:02:36.807Z,68.89
2022-11-15T11:05:07.421Z,69.05
2022-11-15T11:07:37.776Z,70.59
2022-11-15T11:10:49.623Z,70.20
2022-11-15T11:13:23.056Z,70.88
2022-11-15T11:15:55.199Z,71.97
2022-11-15T11:18:54.643Z,72.57
2022-11-15T11:21:40.244Z,70.95
2022-11-15T11:24:19.697Z,70.16
2022-11-15T11:27:29.296Z,70.60
2022-11-15T11:30:15.572Z,71.89
2022-11-15T11:33:01.351Z,71.14
2022-11-15T11:35:53.974Z,71.80
2022-11-15T11:38:43.570Z,71.38
2022-11-15T11:41:47.521Z,70.84
2022-11-15T11:44:35.446Z,70.87
2022-11-15T11:47:10.023Z,71.02
2022-11-15T11:49:42.496Z,70.86
2022-11-15T11:52:27.760Z,70.58
2022-11-15T11:55:41.377Z,70.59
2022-11-15T11:58:35.670Z,71.25
2022-11-15T12:01:31.119Z,71.32
2022-11-15T12:04:17.153Z,70.78
2022-11-15T12:06:59.140Z,71.50
2022-11-15T12:10:00.649Z,71.81
2022-11-15T12:12:52.595Z,71.66
2022-11-15T12:15:36.517Z,70.44
2022-11-15T12:18:16.567Z,68.63
2022-11-15T12:20:58.958Z,69.00
2022-11-15T12:23:29.970Z,69.43
2022-11-15T12:26:09.321Z,68.57
2022-11-15T12:29:06.798Z,67.43
2022-11-15T12:31:44.724Z,66.06
2022-11-15T12:34:40.294Z,65.80
2022-11-15T12:37:44.013Z,64.03
2022-11-15T12:40:10.681Z,67.47
2022-11-15T12:43:02.261Z,68.73
2022-11-15T12:45:35.729Z,70.17
2022-11-15T12:48:17.550Z,70.95
2022-11-15T12:50:55.988Z,70.65
2022-11-15T12:53:25.558Z,65.81
2022-11-15T12:56:18.897Z,69.24
2022-11-15T12:58:49.958Z,66.66
2022-11-15T13:01:32.148Z,66.22
2022-11-15T13:04:19.928Z,65.10
2022-11-15T13:06:57.060Z,62.79
2022-11-15T13:09:38.430Z,64.66
2022-11-15T13:12:23.109Z,63.52
2022-11-15T13:14:58.747Z,65.67
2022-11-15T13:17:28.868Z,65.24
2022-11-15T13:20:04.686Z,66.84
2022-11-15T13:22:52.720Z,66.89
2022-11-15T13:25:35.604Z,70.47
2022-11-15T13:28:17.391Z,70.29
2022-11-15T13:30:54.942Z,69.51
2022-11-15T13:33:35.589Z,69.58
2022-11-15T13:36:07.372Z,69.35
2022-11-15T13:38:36.950Z,68.42
2022-11-15T13:41:19.874Z,69.09
2022-11-15T13:43:50.377Z,70.39
2022-11-15T13:46:18.314Z,71.48
2022-11-15T13:48:46.823Z,71.02
2022-11-15T13:51:25.825Z,72.13
2022-11-15T13:53:58.948Z,72.21
2022-11-15T13:56:28.935Z,70.03
2022-11-15T13:58:55.998Z,68.84
2022-11-15T14:01:23.416Z,68.19
2022-11-15T14:03:58.252Z,68.74
2022-11-15T14:06:28.303Z,67.36
2022-11-15T14:09:35.374Z,67.79
2022-11-15T14:12:03.929Z,69.66
2022-11-15T14:14:31.057Z,69.24
2022-11-15T14:17:01.713Z,69.04
2022-11-15T14:19:32.829Z,69.24
2022-11-15T14:22:10.828Z,69.26
2022-11-15T14:24:38.598Z,69.03
2022-11-15T14:27:18.090Z,70.13
2022-11-15T14:29:44.586Z,70.61
2022-11-15T14:32:17.839Z,70.46
2022-11-15T14:34:59.934Z,69.75
2022-11-15T14:37:36.685Z,70.88
2022-11-15T14:40:06.567Z,71.71
2022-11-15T14:42:33.131Z,72.65
2022-11-15T14:45:15.632Z,72.63
2022-11-15T14:47:43.245Z,73.15
2022-11-15T14:50:22.536Z,73.66
2022-11-15T14:52:49.496Z,74.07
2022-11-15T14:55:21.399Z,74.52
2022-11-15T14:57:48.120Z,75.71
2022-11-15T15:00:15.528Z,74.53
2022-11-15T15:02:43.752Z,73.76
2022-11-15T15:05:15.945Z,74.60
2022-11-15T15:07:43.371Z,76.07
2022-11-15T15:10:39.408Z,74.85
2022-11-15T15:12:56.867Z,75.00
2022-11-15T15:15:26.269Z,75.73
2022-11-15T15:17:52.810Z,75.90
2022-11-15T15:20:19.232Z,76.44
2022-11-15T15:22:45.858Z,76.52
2022-11-15T15:25:35.658Z,76.30
2022-11-15T15:28:03.286Z,77.04
2022-11-15T15:30:31.577Z,77.46
2022-11-15T15:32:58.036Z,77.20
2022-11-15T15:35:29.741Z,76.17
2022-11-15T15:37:56.175Z,75.52
2022-11-15T15:40:24.469Z,76.39
2022-11-15T15:42:51.265Z,76.51
2022-11-15T15:45:19.160Z,76.46
2022-11-15T15:47:47.578Z,76.35
2022-11-15T15:50:33.148Z,75.54
2022-11-15T15:53:01.577Z,77.08
2022-11-15T15:55:28.717Z,77.19
2022-11-15T15:57:55.561Z,76.50
2022-11-15T16:00:24.559Z,76.58
2022-11-15T16:02:51.525Z,77.91
2022-11-15T16:05:18.529Z,78.37
2022-11-15T16:07:45.806Z,79.15
2022-11-15T16:10:25.904Z,79.01
2022-11-15T16:12:53.652Z,80.10
2022-11-15T16:15:20.864Z,80.70
2022-11-15T16:17:55.573Z,80.55
2022-11-15T16:20:31.133Z,81.20
2022-11-15T16:22:57.906Z,82.68
2022-11-15T16:25:24.705Z,81.56
2022-11-15T16:27:51.280Z,81.92
2022-11-15T16:30:21.763Z,81.89
2022-11-15T16:32:48.503Z,83.51
2022-11-15T16:35:16.716Z,86.12
2022-11-15T16:37:45.842Z,86.56
2022-11-15T16:40:28.767Z,85.34
2022-11-15T16:42:56.578Z,85.39
2022-11-15T16:45:23.796Z,84.96
2022-11-15T16:47:50.587Z,84.80
2022-11-15T16:50:25.985Z,83.22
2022-11-15T16:52:54.392Z,83.74
2022-11-15T16:55:24.542Z,84.08
2022-11-15T16:57:51.979Z,83.66
2022-11-15T17:00:20.031Z,85.77
2022-11-15T17:02:48.717Z,86.18
2022-11-15T17:05:20.018Z,85.80
2022-11-15T17:07:54.748Z,84.39
2022-11-15T17:10:25.254Z,85.67
2022-11-15T17:12:52.722Z,85.86
2022-11-15T17:15:19.546Z,86.26
2022-11-15T17:17:52.225Z,87.12
2022-11-15T17:20:20.222Z,88.05
2022-11-15T17:22:47.379Z,88.51
2022-11-15T17:25:14.588Z,89.13
2022-11-15T17:27:41.350Z,89.61
2022-11-15T17:30:09.811Z,89.18
2022-11-15T17:32:40.106Z,88.33
2022-11-15T17:35:15.023Z,88.83
2022-11-15T17:37:42.181Z,90.34
2022-11-15T17:40:09.254Z,89.93
2022-11-15T17:42:35.796Z,90.20
2022-11-15T17:45:08.151Z,90.79
2022-11-15T17:47:36.321Z,90.35
2022-11-15T17:50:03.018Z,89.98
2022-11-15T17:52:29.481Z,88.95
2022-11-15T17:54:55.887Z,89.69
2022-11-15T17:57:22.288Z,89.17
2022-11-15T17:59:49.019Z,88.34
2022-11-15T18:02:15.484Z,87.70
2022-11-15T18:04:42.127Z,86.59
2022-11-15T18:07:11.569Z,87.71
2022-11-15T18:09:42.150Z,88.60
2022-11-15T18:12:08.690Z,89.15
2022-11-15T18:14:35.223Z,89.25
2022-11-15T18:17:05.805Z,89.20
2022-11-15T18:19:32.269Z,90.51
2022-11-15T18:22:04.236Z,91.76
2022-11-15T18:24:33.721Z,91.97
2022-11-15T18:27:01.563Z,91.71
2022-11-15T18:29:30.525Z,91.46
2022-11-15T18:31:57.501Z,91.77
2022-11-15T18:34:25.358Z,91.17
2022-11-15T18:36:52.924Z,91.80
2022-11-15T18:39:19.910Z,91.61
2022-11-15T18:41:47.750Z,91.80
2022-11-15T18:44:14.764Z,90.76
2022-11-15T18:46:42.177Z,91.28
2022-11-15T18:49:10.116Z,90.62
2022-11-15T18:51:41.821Z,90.54
2022-11-15T18:54:10.854Z,91.46
2022-11-15T18:56:38.099Z,91.02
2022-11-15T18:59:09.967Z,91.74
2022-11-15T19:01:38.876Z,91.74
2022-11-15T19:04:20.132Z,92.18
2022-11-15T19:06:49.041Z,92.74
2022-11-15T19:09:17.885Z,92.10
2022-11-15T19:11:45.877Z,92.23
2022-11-15T19:14:24.316Z,91.73
2022-11-15T19:16:55.600Z,92.30
2022-11-15T19:19:24.676Z,92.87
2022-11-15T19:21:57.513Z,92.62
2022-11-15T19:24:30.466Z,92.77
2022-11-15T19:27:02.972Z,92.73
2022-11-15T19:29:29.407Z,92.63
2022-11-15T19:31:55.907Z,92.77
2022-11-15T19:34:22.336Z,92.61
2022-11-15T19:36:52.919Z,92.57
2022-11-15T19:39:19.373Z,92.75
2022-11-15T19:41:46.455Z,92.99
2022-11-15T19:44:13.845Z,93.07
2022-11-15T19:46:41.177Z,93.42
2022-11-15T19:49:10.998Z,93.22
2022-11-15T19:51:38.978Z,92.70
2022-11-15T19:54:09.739Z,92.86
2022-11-15T19:56:36.949Z,92.89
2022-11-15T19:59:04.998Z,93.24
2022-11-15T20:01:38.859Z,93.12
2022-11-15T20:04:07.582Z,93.31
2022-11-15T20:06:37.082Z,93.16
2022-11-15T20:09:15.658Z,93.38
2022-11-15T20:11:42.579Z,93.26
2022-11-15T20:14:11.606Z,93.37
2022-11-15T20:16:40.237Z,92.97
2022-11-15T20:19:08.440Z,93.04
2022-11-15T20:21:36.194Z,93.35
2022-11-15T20:24:07.917Z,93.12
2022-11-15T20:26:35.574Z,93.73
2022-11-15T20:29:03.144Z,93.45
2022-11-15T20:31:39.897Z,92.98
2022-11-15T20:34:06.600Z,93.57
2022-11-15T20:36:33.106Z,92.99
2022-11-15T20:39:00.195Z,93.60
2022-11-15T20:41:27.443Z,93.16
2022-11-15T20:43:53.992Z,93.07
2022-11-15T20:46:21.112Z,93.80
2022-11-15T20:48:47.549Z,93.77
2022-11-15T20:51:16.515Z,93.68
2022-11-15T20:53:44.055Z,93.40
2022-11-15T20:56:16.172Z,93.31
2022-11-15T20:58:44.616Z,93.51
2022-11-15T21:01:14.967Z,94.39
2022-11-15T21:03:43.839Z,94.61
2022-11-15T21:06:11.103Z,94.95
2022-11-15T21:08:57.417Z,94.69
2022-11-15T21:11:49.938Z,95.02
2022-11-15T21:14:16.386Z,95.83
2022-11-15T21:16:59.538Z,95.45
2022-11-15T21:19:31.419Z,96.11
2022-11-15T21:22:03.438Z,96.29
2022-11-15T21:24:29.964Z,96.09
2022-11-15T21:26:56.586Z,95.78
2022-11-15T21:29:23.445Z,95.81
2022-11-15T21:31:51.812Z,96.07
2022-11-15T21:34:19.237Z,96.15
2022-11-15T21:36:45.649Z,96.44
2022-11-15T21:39:12.115Z,96.33
2022-11-15T21:41:38.592Z,96.64
2022-11-15T21:44:05.360Z,96.51
2022-11-15T21:46:32.180Z,96.80
2022-11-15T21:49:05.287Z,97.05
2022-11-15T21:51:32.675Z,96.67
2022-11-15T21:54:00.415Z,97.01
2022-11-15T21:56:28.437Z,97.41
2022-11-15T21:58:55.911Z,97.50
2022-11-15T22:01:43.386Z,97.71
2022-11-15T22:04:10.255Z,98.26
2022-11-15T22:06:36.957Z,98.20
2022-11-15T22:09:06.329Z,98.13
2022-11-15T22:11:33.152Z,97.74
2022-11-15T22:14:00.362Z,97.81
2022-11-15T22:16:26.786Z,97.21
2022-11-15T22:18:53.214Z,97.49
2022-11-15T22:21:19.725Z,97.30
2022-11-15T22:23:46.464Z,97.52
2022-11-15T22:26:17.374Z,97.73
2022-11-15T22:28:47.218Z,97.12
2022-11-15T22:31:14.140Z,97.39
2022-11-15T22:33:40.867Z,97.40
2022-11-15T22:36:17.622Z,96.70
2022-11-15T22:38:44.643Z,97.22
2022-11-15T22:41:11.091Z,97.48
2022-11-15T22:43:37.536Z,97.72
2022-11-15T22:46:04.720Z,97.86
2022-11-15T22:48:37.288Z,98.18
2022-11-15T22:51:05.249Z,97.95
2022-11-15T22:53:31.870Z,97.53
2022-11-15T22:56:03.076Z,97.69
2022-11-15T22:58:31.659Z,97.51
2022-11-15T23:01:00.998Z,97.48
2022-11-15T23:03:39.637Z,97.29
2022-11-15T23:06:07.448Z,97.25
2022-11-15T23:08:34.501Z,97.31
2022-11-15T23:11:21.741Z,96.91
2022-11-15T23:13:51.149Z,96.85
2022-11-15T23:16:23.754Z,96.42
2022-11-15T23:18:57.817Z,96.20
2022-11-15T23:21:45.932Z,96.51
2022-11-15T23:24:14.141Z,96.00
2022-11-15T23:26:41.422Z,96.69
2022-11-15T23:29:09.734Z,96.65
2022-11-15T23:32:01.586Z,97.32
2022-11-15T23:34:36.667Z,97.73
2022-11-15T23:37:04.368Z,98.82
2022-11-15T23:39:30.876Z,98.94
2022-11-15T23:41:57.430Z,98.44
2022-11-15T23:44:24.962Z,98.44
2022-11-15T23:46:52.059Z,98.70
2022-11-15T23:49:18.540Z,98.09
2022-11-15T23:51:45.090Z,98.40
2022-11-15T23:54:12.193Z,98.29
2022-11-15T23:56:43.734Z,98.72
2022-11-15T23:59:10.147Z,98.62
